sensor_id;sensor_type;location;lat;lon;timestamp;temperature;humidity
60495;DHT22;46342;49.046;11.920;2022-12-07T00:01:35;5.50;73.00
60495;DHT22;46342;49.046;11.920;2022-12-07T00:04:03;5.70;73.20
60495;DHT22;46342;49.046;11.920;2022-12-07T00:06:36;5.60;73.10
60495;DHT22;46342;49.046;11.920;2022-12-07T00:09:07;5.60;73.10
60495;DHT22;46342;49.046;11.920;2022-12-07T00:11:34;5.50;73.00
60495;DHT22;46342;49.046;11.920;2022-12-07T00:14:03;5.50;73.10
60495;DHT22;46342;49.046;11.920;2022-12-07T00:16:31;5.50;73.00
60495;DHT22;46342;49.046;11.920;2022-12-07T00:18:58;5.50;73.00
60495;DHT22;46342;49.046;11.920;2022-12-07T00:21:29;5.50;73.00
60495;DHT22;46342;49.046;11.920;2022-12-07T00:23:55;5.50;72.80
60495;DHT22;46342;49.046;11.920;2022-12-07T00:26:23;5.50;72.80
60495;DHT22;46342;49.046;11.920;2022-12-07T00:28:58;5.50;72.90
60495;DHT22;46342;49.046;11.920;2022-12-07T00:31:26;5.50;72.80
60495;DHT22;46342;49.046;11.920;2022-12-07T00:33:51;5.50;72.80
60495;DHT22;46342;49.046;11.920;2022-12-07T00:36:19;5.50;72.90
60495;DHT22;46342;49.046;11.920;2022-12-07T00:38:45;5.50;73.00
60495;DHT22;46342;49.046;11.920;2022-12-07T00:41:19;5.50;72.80
60495;DHT22;46342;49.046;11.920;2022-12-07T00:43:46;5.50;72.80
60495;DHT22;46342;49.046;11.920;2022-12-07T00:46:12;5.50;72.80
60495;DHT22;46342;49.046;11.920;2022-12-07T00:48:39;5.50;72.90
60495;DHT22;46342;49.046;11.920;2022-12-07T00:51:06;5.50;72.90
60495;DHT22;46342;49.046;11.920;2022-12-07T00:53:35;5.50;72.80
60495;DHT22;46342;49.046;11.920;2022-12-07T00:56:09;5.50;72.80
60495;DHT22;46342;49.046;11.920;2022-12-07T00:58:35;5.50;72.90
60495;DHT22;46342;49.046;11.920;2022-12-07T01:01:01;5.50;73.00
60495;DHT22;46342;49.046;11.920;2022-12-07T01:03:27;5.50;73.00
60495;DHT22;46342;49.046;11.920;2022-12-07T01:05:54;5.50;72.80
60495;DHT22;46342;49.046;11.920;2022-12-07T01:08:21;5.50;72.80
60495;DHT22;46342;49.046;11.920;2022-12-07T01:10:47;5.40;72.60
60495;DHT22;46342;49.046;11.920;2022-12-07T01:13:13;5.40;72.60
60495;DHT22;46342;49.046;11.920;2022-12-07T01:15:42;5.40;72.70
60495;DHT22;46342;49.046;11.920;2022-12-07T01:18:08;5.50;72.80
60495;DHT22;46342;49.046;11.920;2022-12-07T01:20:34;5.40;72.80
60495;DHT22;46342;49.046;11.920;2022-12-07T01:22:59;5.40;72.80
60495;DHT22;46342;49.046;11.920;2022-12-07T01:25:25;5.40;72.80
60495;DHT22;46342;49.046;11.920;2022-12-07T01:27:50;5.40;72.80
60495;DHT22;46342;49.046;11.920;2022-12-07T01:30:16;5.40;72.80
60495;DHT22;46342;49.046;11.920;2022-12-07T01:32:42;5.40;72.90
60495;DHT22;46342;49.046;11.920;2022-12-07T01:35:08;5.40;72.80
60495;DHT22;46342;49.046;11.920;2022-12-07T01:37:37;5.40;72.70
60495;DHT22;46342;49.046;11.920;2022-12-07T01:40:05;5.40;72.80
60495;DHT22;46342;49.046;11.920;2022-12-07T01:42:31;5.40;72.80
60495;DHT22;46342;49.046;11.920;2022-12-07T01:47:49;5.40;72.50
60495;DHT22;46342;49.046;11.920;2022-12-07T01:50:16;5.40;72.60
60495;DHT22;46342;49.046;11.920;2022-12-07T01:52:43;5.40;72.70
60495;DHT22;46342;49.046;11.920;2022-12-07T01:55:12;5.40;72.60
60495;DHT22;46342;49.046;11.920;2022-12-07T01:57:41;5.40;72.60
60495;DHT22;46342;49.046;11.920;2022-12-07T02:00:10;5.40;72.70
60495;DHT22;46342;49.046;11.920;2022-12-07T02:03:00;5.40;73.60
60495;DHT22;46342;49.046;11.920;2022-12-07T02:05:28;5.40;72.70
60495;DHT22;46342;49.046;11.920;2022-12-07T02:07:55;5.40;72.80
60495;DHT22;46342;49.046;11.920;2022-12-07T02:10:27;5.40;72.70
60495;DHT22;46342;49.046;11.920;2022-12-07T02:13:18;5.40;72.60
60495;DHT22;46342;49.046;11.920;2022-12-07T02:29:44;5.30;72.40
60495;DHT22;46342;49.046;11.920;2022-12-07T02:32:16;5.30;72.50
60495;DHT22;46342;49.046;11.920;2022-12-07T02:35:20;5.30;72.50
60495;DHT22;46342;49.046;11.920;2022-12-07T02:40:52;5.30;72.20
60495;DHT22;46342;49.046;11.920;2022-12-07T02:43:25;5.30;72.00
60495;DHT22;46342;49.046;11.920;2022-12-07T02:45:55;5.30;72.10
60495;DHT22;46342;49.046;11.920;2022-12-07T02:48:23;5.20;72.10
60495;DHT22;46342;49.046;11.920;2022-12-07T02:50:51;5.20;72.10
60495;DHT22;46342;49.046;11.920;2022-12-07T02:53:30;5.20;72.20
60495;DHT22;46342;49.046;11.920;2022-12-07T02:55:56;5.20;72.10
60495;DHT22;46342;49.046;11.920;2022-12-07T03:06:56;5.10;72.20
60495;DHT22;46342;49.046;11.920;2022-12-07T03:12:20;5.10;72.30
60495;DHT22;46342;49.046;11.920;2022-12-07T03:14:57;5.10;72.40
60495;DHT22;46342;49.046;11.920;2022-12-07T03:17:28;5.10;72.50
60495;DHT22;46342;49.046;11.920;2022-12-07T03:19:58;5.10;72.70
60495;DHT22;46342;49.046;11.920;2022-12-07T03:22:25;5.10;72.70
60495;DHT22;46342;49.046;11.920;2022-12-07T03:24:58;5.10;72.80
60495;DHT22;46342;49.046;11.920;2022-12-07T03:27:27;5.10;72.80
60495;DHT22;46342;49.046;11.920;2022-12-07T03:29:59;5.10;72.80
60495;DHT22;46342;49.046;11.920;2022-12-07T03:32:31;5.10;72.70
60495;DHT22;46342;49.046;11.920;2022-12-07T03:35:05;5.10;72.70
60495;DHT22;46342;49.046;11.920;2022-12-07T03:37:37;5.10;72.70
60495;DHT22;46342;49.046;11.920;2022-12-07T03:42:31;5.10;72.70
60495;DHT22;46342;49.046;11.920;2022-12-07T03:44:58;5.10;72.70
60495;DHT22;46342;49.046;11.920;2022-12-07T03:47:33;5.10;72.70
60495;DHT22;46342;49.046;11.920;2022-12-07T03:50:14;5.10;72.70
60495;DHT22;46342;49.046;11.920;2022-12-07T03:53:09;5.10;72.70
60495;DHT22;46342;49.046;11.920;2022-12-07T03:55:39;5.10;72.70
60495;DHT22;46342;49.046;11.920;2022-12-07T03:58:10;5.10;72.70
60495;DHT22;46342;49.046;11.920;2022-12-07T04:00:36;5.10;72.70
60495;DHT22;46342;49.046;11.920;2022-12-07T04:03:02;5.10;72.80
60495;DHT22;46342;49.046;11.920;2022-12-07T04:05:28;5.10;72.80
60495;DHT22;46342;49.046;11.920;2022-12-07T04:07:54;5.10;73.70
60495;DHT22;46342;49.046;11.920;2022-12-07T04:10:20;5.10;72.90
60495;DHT22;46342;49.046;11.920;2022-12-07T04:12:46;5.10;72.80
60495;DHT22;46342;49.046;11.920;2022-12-07T04:15:12;5.10;72.80
60495;DHT22;46342;49.046;11.920;2022-12-07T04:17:37;5.10;72.80
60495;DHT22;46342;49.046;11.920;2022-12-07T04:20:04;5.10;72.80
60495;DHT22;46342;49.046;11.920;2022-12-07T04:22:30;5.10;72.70
60495;DHT22;46342;49.046;11.920;2022-12-07T04:24:56;5.10;72.80
60495;DHT22;46342;49.046;11.920;2022-12-07T04:27:22;5.10;72.90
60495;DHT22;46342;49.046;11.920;2022-12-07T04:29:47;5.10;72.90
60495;DHT22;46342;49.046;11.920;2022-12-07T04:32:13;5.10;72.90
60495;DHT22;46342;49.046;11.920;2022-12-07T04:34:38;5.10;72.90
60495;DHT22;46342;49.046;11.920;2022-12-07T04:37:04;5.10;72.80
60495;DHT22;46342;49.046;11.920;2022-12-07T04:39:32;5.10;72.70
60495;DHT22;46342;49.046;11.920;2022-12-07T04:41:59;5.10;72.70
60495;DHT22;46342;49.046;11.920;2022-12-07T04:44:26;5.10;72.70
60495;DHT22;46342;49.046;11.920;2022-12-07T04:46:52;5.10;72.70
60495;DHT22;46342;49.046;11.920;2022-12-07T04:49:18;5.00;72.90
60495;DHT22;46342;49.046;11.920;2022-12-07T04:51:44;5.10;72.60
60495;DHT22;46342;49.046;11.920;2022-12-07T04:54:10;5.00;72.50
60495;DHT22;46342;49.046;11.920;2022-12-07T04:56:36;5.00;72.50
60495;DHT22;46342;49.046;11.920;2022-12-07T04:59:03;5.00;72.40
60495;DHT22;46342;49.046;11.920;2022-12-07T05:01:29;5.00;72.30
60495;DHT22;46342;49.046;11.920;2022-12-07T05:03:54;5.00;72.30
60495;DHT22;46342;49.046;11.920;2022-12-07T05:06:20;5.00;72.20
60495;DHT22;46342;49.046;11.920;2022-12-07T05:08:46;4.90;72.10
60495;DHT22;46342;49.046;11.920;2022-12-07T05:11:12;5.00;73.00
60495;DHT22;46342;49.046;11.920;2022-12-07T05:13:56;4.90;71.90
60495;DHT22;46342;49.046;11.920;2022-12-07T05:16:22;4.90;71.90
60495;DHT22;46342;49.046;11.920;2022-12-07T05:18:48;4.90;71.90
60495;DHT22;46342;49.046;11.920;2022-12-07T05:21:13;4.80;71.80
60495;DHT22;46342;49.046;11.920;2022-12-07T05:23:39;4.80;71.80
60495;DHT22;46342;49.046;11.920;2022-12-07T05:26:04;4.80;71.80
60495;DHT22;46342;49.046;11.920;2022-12-07T05:28:30;4.70;71.70
60495;DHT22;46342;49.046;11.920;2022-12-07T05:30:56;4.70;71.70
60495;DHT22;46342;49.046;11.920;2022-12-07T05:33:21;4.70;71.70
60495;DHT22;46342;49.046;11.920;2022-12-07T05:35:47;4.70;71.70
60495;DHT22;46342;49.046;11.920;2022-12-07T05:38:12;4.60;71.60
60495;DHT22;46342;49.046;11.920;2022-12-07T05:40:38;4.60;71.70
60495;DHT22;46342;49.046;11.920;2022-12-07T05:43:04;4.60;71.70
60495;DHT22;46342;49.046;11.920;2022-12-07T05:45:29;4.60;71.60
60495;DHT22;46342;49.046;11.920;2022-12-07T05:47:55;4.60;71.70
60495;DHT22;46342;49.046;11.920;2022-12-07T05:50:20;4.60;71.60
60495;DHT22;46342;49.046;11.920;2022-12-07T05:52:46;4.50;71.50
60495;DHT22;46342;49.046;11.920;2022-12-07T05:55:11;4.50;71.50
60495;DHT22;46342;49.046;11.920;2022-12-07T05:57:37;4.50;71.50
60495;DHT22;46342;49.046;11.920;2022-12-07T06:00:03;4.40;71.40
60495;DHT22;46342;49.046;11.920;2022-12-07T06:02:29;4.40;71.40
60495;DHT22;46342;49.046;11.920;2022-12-07T06:04:55;4.40;71.50
60495;DHT22;46342;49.046;11.920;2022-12-07T06:07:21;4.40;71.60
60495;DHT22;46342;49.046;11.920;2022-12-07T06:09:46;4.30;71.50
60495;DHT22;46342;49.046;11.920;2022-12-07T06:12:12;4.30;71.50
60495;DHT22;46342;49.046;11.920;2022-12-07T06:14:57;4.30;71.60
60495;DHT22;46342;49.046;11.920;2022-12-07T06:17:23;4.30;71.60
60495;DHT22;46342;49.046;11.920;2022-12-07T06:19:49;4.30;71.70
60495;DHT22;46342;49.046;11.920;2022-12-07T06:22:14;4.20;71.60
60495;DHT22;46342;49.046;11.920;2022-12-07T06:24:41;4.20;71.70
60495;DHT22;46342;49.046;11.920;2022-12-07T06:27:07;4.20;71.70
60495;DHT22;46342;49.046;11.920;2022-12-07T06:29:32;4.20;71.70
60495;DHT22;46342;49.046;11.920;2022-12-07T06:31:58;4.20;71.70
60495;DHT22;46342;49.046;11.920;2022-12-07T06:34:25;4.20;71.70
60495;DHT22;46342;49.046;11.920;2022-12-07T06:36:51;4.20;71.70
60495;DHT22;46342;49.046;11.920;2022-12-07T06:39:19;4.10;71.60
60495;DHT22;46342;49.046;11.920;2022-12-07T06:41:45;4.10;71.70
60495;DHT22;46342;49.046;11.920;2022-12-07T06:44:10;4.10;71.70
60495;DHT22;46342;49.046;11.920;2022-12-07T06:46:36;4.10;71.80
60495;DHT22;46342;49.046;11.920;2022-12-07T06:49:03;4.10;71.90
60495;DHT22;46342;49.046;11.920;2022-12-07T06:51:29;4.10;71.90
60495;DHT22;46342;49.046;11.920;2022-12-07T06:53:55;4.10;71.90
60495;DHT22;46342;49.046;11.920;2022-12-07T06:56:21;4.10;71.90
60495;DHT22;46342;49.046;11.920;2022-12-07T06:58:46;4.10;71.90
60495;DHT22;46342;49.046;11.920;2022-12-07T07:01:14;4.10;71.80
60495;DHT22;46342;49.046;11.920;2022-12-07T07:03:40;4.10;71.90
60495;DHT22;46342;49.046;11.920;2022-12-07T07:06:07;4.10;71.90
60495;DHT22;46342;49.046;11.920;2022-12-07T07:08:36;4.10;72.00
60495;DHT22;46342;49.046;11.920;2022-12-07T07:11:02;4.00;72.00
60495;DHT22;46342;49.046;11.920;2022-12-07T07:13:28;4.00;72.00
60495;DHT22;46342;49.046;11.920;2022-12-07T07:15:54;4.00;72.10
60495;DHT22;46342;49.046;11.920;2022-12-07T07:18:19;4.00;72.20
60495;DHT22;46342;49.046;11.920;2022-12-07T07:20:45;4.00;73.10
60495;DHT22;46342;49.046;11.920;2022-12-07T07:23:11;4.00;72.20
60495;DHT22;46342;49.046;11.920;2022-12-07T07:25:36;4.10;72.30
60495;DHT22;46342;49.046;11.920;2022-12-07T07:28:02;4.00;72.20
60495;DHT22;46342;49.046;11.920;2022-12-07T07:30:28;4.10;72.40
60495;DHT22;46342;49.046;11.920;2022-12-07T07:32:58;4.10;72.40
60495;DHT22;46342;49.046;11.920;2022-12-07T07:35:28;4.10;72.50
60495;DHT22;46342;49.046;11.920;2022-12-07T07:37:54;4.10;72.50
60495;DHT22;46342;49.046;11.920;2022-12-07T07:40:19;4.10;72.40
60495;DHT22;46342;49.046;11.920;2022-12-07T07:42:49;4.10;72.40
60495;DHT22;46342;49.046;11.920;2022-12-07T07:45:15;4.10;72.30
60495;DHT22;46342;49.046;11.920;2022-12-07T07:47:41;4.10;72.30
60495;DHT22;46342;49.046;11.920;2022-12-07T07:50:07;4.10;72.40
60495;DHT22;46342;49.046;11.920;2022-12-07T07:52:32;4.10;72.50
60495;DHT22;46342;49.046;11.920;2022-12-07T07:54:58;4.10;72.50
60495;DHT22;46342;49.046;11.920;2022-12-07T07:57:24;4.30;72.70
60495;DHT22;46342;49.046;11.920;2022-12-07T07:59:49;4.20;72.60
60495;DHT22;46342;49.046;11.920;2022-12-07T08:02:17;4.10;73.40
60495;DHT22;46342;49.046;11.920;2022-12-07T08:04:43;4.20;72.60
60495;DHT22;46342;49.046;11.920;2022-12-07T08:07:09;4.10;72.50
60495;DHT22;46342;49.046;11.920;2022-12-07T08:09:35;4.20;72.70
60495;DHT22;46342;49.046;11.920;2022-12-07T08:12:00;4.20;72.70
60495;DHT22;46342;49.046;11.920;2022-12-07T08:14:26;4.20;72.70
60495;DHT22;46342;49.046;11.920;2022-12-07T08:16:54;4.20;72.60
60495;DHT22;46342;49.046;11.920;2022-12-07T08:19:20;4.20;72.60
60495;DHT22;46342;49.046;11.920;2022-12-07T08:21:45;4.30;72.70
60495;DHT22;46342;49.046;11.920;2022-12-07T08:24:11;4.30;72.70
60495;DHT22;46342;49.046;11.920;2022-12-07T08:26:37;4.30;72.70
60495;DHT22;46342;49.046;11.920;2022-12-07T08:29:02;4.30;72.60
60495;DHT22;46342;49.046;11.920;2022-12-07T08:31:28;4.30;72.60
60495;DHT22;46342;49.046;11.920;2022-12-07T08:33:54;4.30;72.50
60495;DHT22;46342;49.046;11.920;2022-12-07T08:36:20;4.30;72.50
60495;DHT22;46342;49.046;11.920;2022-12-07T08:38:48;4.30;72.50
60495;DHT22;46342;49.046;11.920;2022-12-07T08:41:13;4.40;72.60
60495;DHT22;46342;49.046;11.920;2022-12-07T08:43:39;4.40;72.60
60495;DHT22;46342;49.046;11.920;2022-12-07T08:48:40;4.40;72.40
60495;DHT22;46342;49.046;11.920;2022-12-07T08:51:06;4.40;72.50
60495;DHT22;46342;49.046;11.920;2022-12-07T08:53:33;4.40;72.60
60495;DHT22;46342;49.046;11.920;2022-12-07T08:56:00;4.60;72.70
60495;DHT22;46342;49.046;11.920;2022-12-07T08:58:26;4.50;72.70
60495;DHT22;46342;49.046;11.920;2022-12-07T09:00:52;4.50;72.70
60495;DHT22;46342;49.046;11.920;2022-12-07T09:03:17;4.50;72.70
60495;DHT22;46342;49.046;11.920;2022-12-07T09:05:43;4.50;72.70
60495;DHT22;46342;49.046;11.920;2022-12-07T09:08:09;4.50;72.70
60495;DHT22;46342;49.046;11.920;2022-12-07T09:10:35;4.50;72.70
60495;DHT22;46342;49.046;11.920;2022-12-07T09:13:00;4.60;72.80
60495;DHT22;46342;49.046;11.920;2022-12-07T09:15:27;4.60;72.90
60495;DHT22;46342;49.046;11.920;2022-12-07T09:17:53;4.60;73.70
60495;DHT22;46342;49.046;11.920;2022-12-07T09:20:19;4.60;72.80
60495;DHT22;46342;49.046;11.920;2022-12-07T09:22:44;4.60;72.80
60495;DHT22;46342;49.046;11.920;2022-12-07T09:25:10;4.70;72.80
60495;DHT22;46342;49.046;11.920;2022-12-07T09:27:36;4.70;72.80
60495;DHT22;46342;49.046;11.920;2022-12-07T09:30:02;4.70;72.90
60495;DHT22;46342;49.046;11.920;2022-12-07T09:32:28;4.70;72.80
60495;DHT22;46342;49.046;11.920;2022-12-07T09:34:53;4.80;72.90
60495;DHT22;46342;49.046;11.920;2022-12-07T09:37:19;4.80;72.90
60495;DHT22;46342;49.046;11.920;2022-12-07T09:39:45;4.80;72.90
60495;DHT22;46342;49.046;11.920;2022-12-07T09:42:38;4.80;72.80
60495;DHT22;46342;49.046;11.920;2022-12-07T09:45:15;4.80;72.70
60495;DHT22;46342;49.046;11.920;2022-12-07T09:47:42;4.80;72.60
60495;DHT22;46342;49.046;11.920;2022-12-07T09:50:13;4.90;72.80
60495;DHT22;46342;49.046;11.920;2022-12-07T09:52:40;4.90;72.80
60495;DHT22;46342;49.046;11.920;2022-12-07T09:55:12;4.90;72.80
60495;DHT22;46342;49.046;11.920;2022-12-07T09:57:39;5.00;72.70
60495;DHT22;46342;49.046;11.920;2022-12-07T10:00:16;5.00;72.90
60495;DHT22;46342;49.046;11.920;2022-12-07T10:03:03;5.00;72.80
60495;DHT22;46342;49.046;11.920;2022-12-07T10:05:49;5.10;72.80
60495;DHT22;46342;49.046;11.920;2022-12-07T10:08:15;5.10;72.90
60495;DHT22;46342;49.046;11.920;2022-12-07T10:10:43;5.10;73.10
60495;DHT22;46342;49.046;11.920;2022-12-07T10:13:14;5.10;73.10
60495;DHT22;46342;49.046;11.920;2022-12-07T10:15:55;5.20;73.20
60495;DHT22;46342;49.046;11.920;2022-12-07T10:18:47;5.20;73.00
60495;DHT22;46342;49.046;11.920;2022-12-07T10:21:18;5.30;73.10
60495;DHT22;46342;49.046;11.920;2022-12-07T10:31:56;5.30;73.10
60495;DHT22;46342;49.046;11.920;2022-12-07T10:34:23;5.40;73.20
60495;DHT22;46342;49.046;11.920;2022-12-07T10:36:50;5.50;73.50
60495;DHT22;46342;49.046;11.920;2022-12-07T10:39:19;5.50;73.40
60495;DHT22;46342;49.046;11.920;2022-12-07T10:41:59;5.50;73.20
60495;DHT22;46342;49.046;11.920;2022-12-07T10:44:29;5.60;73.00
60495;DHT22;46342;49.046;11.920;2022-12-07T11:01:26;5.80;72.70
60495;DHT22;46342;49.046;11.920;2022-12-07T11:06:39;5.90;72.60
60495;DHT22;46342;49.046;11.920;2022-12-07T11:09:42;5.90;73.00
60495;DHT22;46342;49.046;11.920;2022-12-07T11:12:20;5.90;72.30
60495;DHT22;46342;49.046;11.920;2022-12-07T11:15:10;6.00;72.80
60495;DHT22;46342;49.046;11.920;2022-12-07T11:18:03;6.00;72.60
60495;DHT22;46342;49.046;11.920;2022-12-07T11:29:27;6.10;72.10
60495;DHT22;46342;49.046;11.920;2022-12-07T11:37:27;6.20;71.90
60495;DHT22;46342;49.046;11.920;2022-12-07T11:40:02;6.20;72.00
60495;DHT22;46342;49.046;11.920;2022-12-07T11:42:33;6.20;71.80
60495;DHT22;46342;49.046;11.920;2022-12-07T11:45:20;6.20;71.90
60495;DHT22;46342;49.046;11.920;2022-12-07T11:48:01;6.20;71.50
60495;DHT22;46342;49.046;11.920;2022-12-07T11:50:34;6.30;71.30
60495;DHT22;46342;49.046;11.920;2022-12-07T11:53:14;6.20;71.30
60495;DHT22;46342;49.046;11.920;2022-12-07T12:03:49;6.30;70.90
60495;DHT22;46342;49.046;11.920;2022-12-07T12:06:16;6.30;71.50
60495;DHT22;46342;49.046;11.920;2022-12-07T12:20:15;6.30;71.30
60495;DHT22;46342;49.046;11.920;2022-12-07T12:22:46;6.30;71.80
60495;DHT22;46342;49.046;11.920;2022-12-07T12:25:27;6.30;71.70
60495;DHT22;46342;49.046;11.920;2022-12-07T12:27:57;6.30;71.50
60495;DHT22;46342;49.046;11.920;2022-12-07T12:33:25;6.30;71.50
60495;DHT22;46342;49.046;11.920;2022-12-07T12:47:51;6.30;71.30
60495;DHT22;46342;49.046;11.920;2022-12-07T12:50:29;6.30;70.90
60495;DHT22;46342;49.046;11.920;2022-12-07T12:53:13;6.30;71.10
60495;DHT22;46342;49.046;11.920;2022-12-07T12:58:29;6.30;71.60
60495;DHT22;46342;49.046;11.920;2022-12-07T13:01:47;6.30;71.30
60495;DHT22;46342;49.046;11.920;2022-12-07T13:06:51;6.30;71.50
60495;DHT22;46342;49.046;11.920;2022-12-07T13:09:31;6.30;71.90
60495;DHT22;46342;49.046;11.920;2022-12-07T13:12:05;6.30;71.80
60495;DHT22;46342;49.046;11.920;2022-12-07T13:25:12;6.40;71.40
60495;DHT22;46342;49.046;11.920;2022-12-07T13:27:40;6.40;71.60
60495;DHT22;46342;49.046;11.920;2022-12-07T13:30:24;6.40;71.80
60495;DHT22;46342;49.046;11.920;2022-12-07T13:32:58;6.40;71.40
60495;DHT22;46342;49.046;11.920;2022-12-07T13:35:31;6.40;71.60
60495;DHT22;46342;49.046;11.920;2022-12-07T13:37:59;6.40;71.70
60495;DHT22;46342;49.046;11.920;2022-12-07T13:40:27;6.40;71.90
60495;DHT22;46342;49.046;11.920;2022-12-07T13:43:01;6.40;72.00
60495;DHT22;46342;49.046;11.920;2022-12-07T13:45:28;6.40;71.60
60495;DHT22;46342;49.046;11.920;2022-12-07T13:48:32;6.40;72.00
60495;DHT22;46342;49.046;11.920;2022-12-07T13:50:59;6.40;71.70
60495;DHT22;46342;49.046;11.920;2022-12-07T13:53:27;6.40;71.80
60495;DHT22;46342;49.046;11.920;2022-12-07T13:55:59;6.40;71.80
60495;DHT22;46342;49.046;11.920;2022-12-07T13:58:27;6.50;71.80
60495;DHT22;46342;49.046;11.920;2022-12-07T14:00:55;6.50;71.90
60495;DHT22;46342;49.046;11.920;2022-12-07T14:03:28;6.50;71.90
60495;DHT22;46342;49.046;11.920;2022-12-07T14:08:44;6.50;71.50
60495;DHT22;46342;49.046;11.920;2022-12-07T14:11:19;6.50;71.80
60495;DHT22;46342;49.046;11.920;2022-12-07T14:13:54;6.50;71.40
60495;DHT22;46342;49.046;11.920;2022-12-07T14:16:36;6.50;71.60
60495;DHT22;46342;49.046;11.920;2022-12-07T14:19:04;6.50;71.50
60495;DHT22;46342;49.046;11.920;2022-12-07T14:21:33;6.50;71.70
60495;DHT22;46342;49.046;11.920;2022-12-07T14:24:19;6.50;71.70
60495;DHT22;46342;49.046;11.920;2022-12-07T14:26:49;6.50;71.30
60495;DHT22;46342;49.046;11.920;2022-12-07T14:31:52;6.50;71.50
60495;DHT22;46342;49.046;11.920;2022-12-07T14:34:20;6.50;72.50
60495;DHT22;46342;49.046;11.920;2022-12-07T14:36:46;6.50;71.50
60495;DHT22;46342;49.046;11.920;2022-12-07T14:39:11;6.50;70.90
60495;DHT22;46342;49.046;11.920;2022-12-07T14:41:37;6.60;71.40
60495;DHT22;46342;49.046;11.920;2022-12-07T14:44:22;6.50;71.40
60495;DHT22;46342;49.046;11.920;2022-12-07T14:46:49;6.40;71.20
60495;DHT22;46342;49.046;11.920;2022-12-07T14:49:15;6.40;71.30
60495;DHT22;46342;49.046;11.920;2022-12-07T14:51:42;6.40;71.40
60495;DHT22;46342;49.046;11.920;2022-12-07T14:54:20;6.40;71.40
60495;DHT22;46342;49.046;11.920;2022-12-07T14:56:47;6.40;71.00
60495;DHT22;46342;49.046;11.920;2022-12-07T14:59:16;6.30;71.30
60495;DHT22;46342;49.046;11.920;2022-12-07T15:01:42;6.30;71.30
60495;DHT22;46342;49.046;11.920;2022-12-07T15:04:08;6.30;71.30
60495;DHT22;46342;49.046;11.920;2022-12-07T15:06:34;6.30;71.40
60495;DHT22;46342;49.046;11.920;2022-12-07T15:08:59;6.30;71.30
60495;DHT22;46342;49.046;11.920;2022-12-07T15:11:25;6.30;71.30
60495;DHT22;46342;49.046;11.920;2022-12-07T15:13:51;6.30;71.30
60495;DHT22;46342;49.046;11.920;2022-12-07T15:16:37;6.30;71.40
60495;DHT22;46342;49.046;11.920;2022-12-07T15:19:05;6.30;71.30
60495;DHT22;46342;49.046;11.920;2022-12-07T15:21:31;6.30;71.30
60495;DHT22;46342;49.046;11.920;2022-12-07T15:23:56;6.20;71.10
60495;DHT22;46342;49.046;11.920;2022-12-07T15:26:22;6.20;71.10
60495;DHT22;46342;49.046;11.920;2022-12-07T15:28:47;6.20;71.10
60495;DHT22;46342;49.046;11.920;2022-12-07T15:31:14;6.20;71.10
60495;DHT22;46342;49.046;11.920;2022-12-07T15:33:40;6.20;71.10
60495;DHT22;46342;49.046;11.920;2022-12-07T15:36:06;6.20;71.20
60495;DHT22;46342;49.046;11.920;2022-12-07T15:38:32;6.20;71.20
60495;DHT22;46342;49.046;11.920;2022-12-07T15:40:58;6.10;71.10
60495;DHT22;46342;49.046;11.920;2022-12-07T15:43:23;6.10;71.20
60495;DHT22;46342;49.046;11.920;2022-12-07T15:46:08;6.10;71.20
60495;DHT22;46342;49.046;11.920;2022-12-07T15:48:34;6.10;71.30
60495;DHT22;46342;49.046;11.920;2022-12-07T15:51:09;6.10;71.30
60495;DHT22;46342;49.046;11.920;2022-12-07T15:53:35;6.10;71.20
60495;DHT22;46342;49.046;11.920;2022-12-07T15:56:01;6.10;71.30
60495;DHT22;46342;49.046;11.920;2022-12-07T15:58:27;6.10;71.40
60495;DHT22;46342;49.046;11.920;2022-12-07T16:00:52;6.00;71.30
60495;DHT22;46342;49.046;11.920;2022-12-07T16:03:18;6.10;71.50
60495;DHT22;46342;49.046;11.920;2022-12-07T16:05:51;6.10;71.50
60495;DHT22;46342;49.046;11.920;2022-12-07T16:08:16;6.10;71.30
60495;DHT22;46342;49.046;11.920;2022-12-07T16:10:42;6.00;71.30
60495;DHT22;46342;49.046;11.920;2022-12-07T16:13:09;6.00;71.40
60495;DHT22;46342;49.046;11.920;2022-12-07T16:15:42;6.00;71.40
60495;DHT22;46342;49.046;11.920;2022-12-07T16:18:08;6.00;71.30
60495;DHT22;46342;49.046;11.920;2022-12-07T16:20:33;6.00;71.50
60495;DHT22;46342;49.046;11.920;2022-12-07T16:22:59;6.00;71.40
60495;DHT22;46342;49.046;11.920;2022-12-07T16:25:25;6.00;71.40
60495;DHT22;46342;49.046;11.920;2022-12-07T16:27:52;6.00;71.40
60495;DHT22;46342;49.046;11.920;2022-12-07T16:30:17;6.00;71.50
60495;DHT22;46342;49.046;11.920;2022-12-07T16:32:43;6.00;71.50
60495;DHT22;46342;49.046;11.920;2022-12-07T16:35:09;6.00;71.50
60495;DHT22;46342;49.046;11.920;2022-12-07T16:37:35;6.00;71.50
60495;DHT22;46342;49.046;11.920;2022-12-07T16:40:00;6.00;71.60
60495;DHT22;46342;49.046;11.920;2022-12-07T16:42:26;5.90;71.60
60495;DHT22;46342;49.046;11.920;2022-12-07T16:44:52;5.90;71.60
60495;DHT22;46342;49.046;11.920;2022-12-07T16:47:18;5.90;71.60
60495;DHT22;46342;49.046;11.920;2022-12-07T16:49:43;5.90;71.60
60495;DHT22;46342;49.046;11.920;2022-12-07T16:52:09;5.90;71.60
60495;DHT22;46342;49.046;11.920;2022-12-07T16:54:36;5.90;71.50
60495;DHT22;46342;49.046;11.920;2022-12-07T16:57:01;5.90;71.60
60495;DHT22;46342;49.046;11.920;2022-12-07T16:59:27;5.90;71.60
60495;DHT22;46342;49.046;11.920;2022-12-07T17:01:52;5.90;71.60
60495;DHT22;46342;49.046;11.920;2022-12-07T17:04:18;5.90;71.60
60495;DHT22;46342;49.046;11.920;2022-12-07T17:06:43;5.90;71.60
60495;DHT22;46342;49.046;11.920;2022-12-07T17:09:09;5.90;71.60
60495;DHT22;46342;49.046;11.920;2022-12-07T17:11:37;5.90;71.60
60495;DHT22;46342;49.046;11.920;2022-12-07T17:14:03;5.90;71.60
60495;DHT22;46342;49.046;11.920;2022-12-07T17:16:47;5.90;71.60
60495;DHT22;46342;49.046;11.920;2022-12-07T17:19:15;5.90;71.70
60495;DHT22;46342;49.046;11.920;2022-12-07T17:21:42;5.90;71.70
60495;DHT22;46342;49.046;11.920;2022-12-07T17:24:09;6.00;71.80
60495;DHT22;46342;49.046;11.920;2022-12-07T17:26:35;5.90;71.70
60495;DHT22;46342;49.046;11.920;2022-12-07T17:29:03;5.90;71.70
60495;DHT22;46342;49.046;11.920;2022-12-07T17:31:29;5.80;71.60
60495;DHT22;46342;49.046;11.920;2022-12-07T17:33:55;5.90;71.70
60495;DHT22;46342;49.046;11.920;2022-12-07T17:36:22;5.90;71.80
60495;DHT22;46342;49.046;11.920;2022-12-07T17:38:49;5.90;71.70
60495;DHT22;46342;49.046;11.920;2022-12-07T17:41:23;5.90;71.70
60495;DHT22;46342;49.046;11.920;2022-12-07T17:44:09;5.90;71.70
60495;DHT22;46342;49.046;11.920;2022-12-07T17:46:36;5.80;71.60
60495;DHT22;46342;49.046;11.920;2022-12-07T17:49:03;5.80;71.60
60495;DHT22;46342;49.046;11.920;2022-12-07T17:51:29;5.80;71.60
60495;DHT22;46342;49.046;11.920;2022-12-07T17:54:14;5.80;71.60